Time;durP1;ratioP1;P1;durP2;ratioP2;P2;SDS_P1;SDS_P2;PMS_P1;PMS_P2;Temp;Humidity;BMP_temperature;BMP_pressure;BME280_temperature;BME280_humidity;BME280_pressure;Samples;Min_cycle;Max_cycle;Signal;HPM_P1;HPM_P2
2023/05/27 00:01:27;;;;;;;14.50;2.78;;;9.90;99.90;;;;;;5113391;28;20039;-85
2023/05/27 00:03:52;;;;;;;13.85;2.78;;;9.90;99.90;;;;;;5117055;27;20124;-85
2023/05/27 00:06:18;;;;;;;11.40;3.13;;;9.80;99.90;;;;;;5117480;27;20514;-84
2023/05/27 00:08:43;;;;;;;15.50;2.67;;;9.60;99.90;;;;;;5117711;27;20035;-85
2023/05/27 00:11:09;;;;;;;12.13;3.22;;;9.60;99.90;;;;;;5117374;27;20400;-85
2023/05/27 00:13:35;;;;;;;9.88;3.13;;;9.60;99.90;;;;;;5117873;27;20046;-85
2023/05/27 00:16:00;;;;;;;11.75;2.72;;;9.60;99.90;;;;;;5117768;27;20400;-85
2023/05/27 00:18:26;;;;;;;10.20;3.17;;;9.50;99.90;;;;;;5117480;27;20095;-85
2023/05/27 00:20:51;;;;;;;11.75;2.88;;;9.40;99.90;;;;;;5117330;27;20042;-85
2023/05/27 00:23:17;;;;;;;9.40;2.58;;;9.40;99.90;;;;;;5117508;27;20047;-85
2023/05/27 00:25:43;;;;;;;9.60;2.42;;;9.40;99.90;;;;;;5117214;27;20054;-85
2023/05/27 00:28:09;;;;;;;9.48;2.20;;;9.40;99.90;;;;;;5117325;27;20043;-85
2023/05/27 00:30:34;;;;;;;13.23;2.80;;;9.30;99.90;;;;;;5116968;27;20031;-85
2023/05/27 00:33:00;;;;;;;9.88;2.35;;;9.20;99.90;;;;;;5135783;27;20091;-85
2023/05/27 00:35:25;;;;;;;9.60;2.28;;;9.10;99.90;;;;;;5117557;27;20039;-85
2023/05/27 00:37:51;;;;;;;10.50;1.83;;;9.10;99.90;;;;;;5117193;27;20125;-85
2023/05/27 00:40:21;;;;;;;8.23;1.95;;;9.10;99.90;;;;;;5116809;27;20034;-85
2023/05/27 00:42:46;;;;;;;6.20;1.80;;;9.00;99.90;;;;;;5117146;27;20051;-85
2023/05/27 00:45:12;;;;;;;6.50;2.10;;;8.90;99.90;;;;;;5117091;27;20050;-85
2023/05/27 00:47:38;;;;;;;5.28;1.52;;;8.80;99.90;;;;;;5116987;27;20389;-85
2023/05/27 00:50:05;;;;;;;8.57;2.05;;;8.70;99.90;;;;;;5116518;27;20128;-85
2023/05/27 00:52:31;;;;;;;8.82;1.65;;;8.70;99.90;;;;;;5116999;27;20088;-85
2023/05/27 00:54:59;;;;;;;5.93;1.88;;;8.60;99.90;;;;;;5110013;28;20070;-84
2023/05/27 00:57:25;;;;;;;9.50;2.25;;;8.60;99.90;;;;;;5079130;28;20051;-85
2023/05/27 00:59:51;;;;;;;9.40;2.22;;;8.60;99.90;;;;;;5096025;28;20047;-85
2023/05/27 01:02:17;;;;;;;7.47;2.22;;;8.60;99.90;;;;;;5096402;28;20048;-85
2023/05/27 01:04:46;;;;;;;9.68;2.80;;;8.50;99.90;;;;;;5096267;28;20039;-85
2023/05/27 01:07:29;;;;;;;10.18;3.60;;;8.50;99.90;;;;;;5096246;28;20059;-85
2023/05/27 01:10:07;;;;;;;12.75;2.67;;;8.50;99.90;;;;;;5095887;28;20513;-85
2023/05/27 01:13:00;;;;;;;8.23;2.58;;;8.40;99.90;;;;;;5096182;28;20064;-85
2023/05/27 01:15:27;;;;;;;9.57;3.13;;;8.40;99.90;;;;;;5095478;28;20045;-85
2023/05/27 01:17:57;;;;;;;11.43;3.25;;;8.40;99.90;;;;;;5095912;28;20044;-85
2023/05/27 01:20:24;;;;;;;7.57;2.45;;;8.40;99.90;;;;;;5095909;28;20043;-86
2023/05/27 01:22:52;;;;;;;12.93;2.72;;;8.40;99.90;;;;;;5095786;28;20055;-85
2023/05/27 01:25:19;;;;;;;12.30;3.00;;;8.40;99.90;;;;;;5096004;28;20122;-85
2023/05/27 01:27:45;;;;;;;12.85;3.45;;;8.30;99.90;;;;;;5095837;28;20044;-85
2023/05/27 01:30:11;;;;;;;14.48;3.08;;;8.30;99.90;;;;;;5095062;28;20035;-85
2023/05/27 01:32:57;;;;;;;9.88;2.50;;;8.40;99.90;;;;;;5095859;28;20495;-85
2023/05/27 01:35:35;;;;;;;7.40;2.83;;;8.30;99.90;;;;;;5095666;28;20039;-85
2023/05/27 01:38:06;;;;;;;10.82;2.72;;;8.30;99.90;;;;;;5078771;28;20054;-85
2023/05/27 01:40:34;;;;;;;10.75;3.10;;;8.30;99.90;;;;;;5095668;28;20497;-85
2023/05/27 01:43:00;;;;;;;19.83;3.58;;;8.30;99.90;;;;;;5095670;28;20036;-85
2023/05/27 01:45:26;;;;;;;8.98;2.58;;;8.30;99.90;;;;;;5095514;28;20093;-85
2023/05/27 01:47:52;;;;;;;11.20;3.30;;;8.30;99.90;;;;;;5095238;28;20039;-85
2023/05/27 01:50:17;;;;;;;13.80;3.20;;;8.30;99.90;;;;;;5113331;28;20058;-85
2023/05/27 01:52:43;;;;;;;10.82;2.97;;;8.30;99.90;;;;;;5095376;28;20075;-85
2023/05/27 01:55:09;;;;;;;11.43;3.00;;;8.20;99.90;;;;;;5095659;28;20071;-85
2023/05/27 01:57:35;;;;;;;8.00;2.50;;;8.20;99.90;;;;;;5095365;28;20047;-85
2023/05/27 02:00:01;;;;;;;12.05;2.85;;;8.10;99.90;;;;;;5095158;28;20043;-85
2023/05/27 02:02:26;;;;;;;8.80;2.50;;;8.10;99.90;;;;;;5095167;28;20391;-85
2023/05/27 02:04:52;;;;;;;11.35;3.50;;;8.00;99.90;;;;;;5095171;28;20047;-85
2023/05/27 02:07:18;;;;;;;9.57;2.65;;;7.90;99.90;;;;;;5094801;28;20046;-85
2023/05/27 02:09:45;;;;;;;9.95;2.70;;;7.90;99.90;;;;;;5111785;28;20044;-85
2023/05/27 02:12:11;;;;;;;8.30;2.20;;;7.80;99.90;;;;;;5113181;28;20040;-85
2023/05/27 02:14:38;;;;;;;8.98;2.70;;;7.80;99.90;;;;;;5111970;28;20033;-85
2023/05/27 02:17:05;;;;;;;7.40;2.30;;;7.70;99.90;;;;;;5113195;28;20633;-85
2023/05/27 02:19:30;;;;;;;8.98;2.80;;;7.70;99.90;;;;;;5112703;28;20067;-85
2023/05/27 02:21:56;;;;;;;9.60;2.80;;;7.70;99.90;;;;;;5111880;28;20497;-85
2023/05/27 02:24:22;;;;;;;10.02;2.70;;;7.60;99.90;;;;;;5113002;28;20039;-85
2023/05/27 02:26:47;;;;;;;8.90;2.72;;;7.60;99.90;;;;;;5093845;28;20036;-85
2023/05/27 02:29:13;;;;;;;8.98;2.58;;;7.60;99.90;;;;;;5094616;28;20036;-85
2023/05/27 02:31:38;;;;;;;10.50;2.63;;;7.60;99.90;;;;;;5111076;28;20044;-85
2023/05/27 02:34:04;;;;;;;8.20;2.47;;;7.60;99.90;;;;;;5111857;28;20123;-85
2023/05/27 02:36:29;;;;;;;11.05;2.67;;;7.60;99.90;;;;;;5111586;28;20447;-85
2023/05/27 02:38:55;;;;;;;11.93;3.30;;;7.70;99.90;;;;;;5112761;28;20067;-85
2023/05/27 02:41:21;;;;;;;9.57;2.90;;;7.70;99.90;;;;;;5094575;28;20136;-85
2023/05/27 02:43:46;;;;;;;10.85;3.35;;;7.80;99.90;;;;;;5111750;28;20047;-85
2023/05/27 02:46:12;;;;;;;13.32;2.70;;;7.80;99.90;;;;;;5112467;28;20531;-85
2023/05/27 02:48:37;;;;;;;12.80;3.10;;;7.80;99.90;;;;;;5112448;28;20067;-85
2023/05/27 02:51:03;;;;;;;9.98;2.70;;;7.80;99.90;;;;;;5110999;28;20401;-85
2023/05/27 02:53:29;;;;;;;11.15;3.22;;;7.90;99.90;;;;;;5111590;28;20035;-85
2023/05/27 02:55:54;;;;;;;11.73;3.00;;;7.90;99.90;;;;;;5112520;28;20493;-85
2023/05/27 02:58:20;;;;;;;10.90;3.05;;;7.90;99.90;;;;;;5112413;28;20537;-85
2023/05/27 03:00:46;;;;;;;8.98;2.58;;;7.90;99.90;;;;;;5110803;28;20062;-85
2023/05/27 03:03:11;;;;;;;12.25;2.67;;;7.90;99.90;;;;;;5111200;28;20058;-85
2023/05/27 03:05:37;;;;;;;11.23;3.30;;;7.90;99.90;;;;;;5111150;28;20401;-84
2023/05/27 03:08:05;;;;;;;15.23;3.90;;;7.90;99.90;;;;;;5111044;28;20040;-84
2023/05/27 03:10:32;;;;;;;10.82;3.13;;;7.90;99.90;;;;;;5110695;28;20114;-84
2023/05/27 03:12:57;;;;;;;9.35;2.85;;;7.90;99.90;;;;;;5111029;28;20370;-84
2023/05/27 03:15:23;;;;;;;11.45;3.22;;;7.90;99.90;;;;;;5110957;28;20046;-83
2023/05/27 03:17:49;;;;;;;10.52;2.35;;;7.90;99.90;;;;;;5110890;28;20035;-84
2023/05/27 03:20:16;;;;;;;15.40;3.28;;;7.80;99.90;;;;;;5110869;28;20036;-84
2023/05/27 03:22:42;;;;;;;12.07;2.92;;;7.80;99.90;;;;;;5110922;28;20043;-84
2023/05/27 03:25:08;;;;;;;10.32;2.80;;;7.80;99.90;;;;;;5110884;28;20036;-84
2023/05/27 03:27:34;;;;;;;10.60;3.05;;;7.80;99.90;;;;;;5110717;28;20117;-84
2023/05/27 03:30:00;;;;;;;14.15;3.15;;;7.90;99.90;;;;;;5110301;28;20040;-84
2023/05/27 03:32:25;;;;;;;13.20;2.80;;;7.90;99.90;;;;;;5112132;28;20062;-84
2023/05/27 03:34:51;;;;;;;10.35;2.70;;;7.90;99.90;;;;;;5110763;28;20032;-84
2023/05/27 03:37:17;;;;;;;10.82;3.53;;;8.00;99.90;;;;;;5111046;28;20081;-84
2023/05/27 03:39:42;;;;;;;11.93;3.30;;;8.00;99.90;;;;;;5114500;28;20096;-84
2023/05/27 03:42:09;;;;;;;11.23;3.80;;;8.10;99.90;;;;;;5115234;28;20130;-84
2023/05/27 03:44:34;;;;;;;13.65;3.05;;;8.10;99.90;;;;;;5114603;28;20086;-84
2023/05/27 03:47:02;;;;;;;13.05;3.25;;;8.20;99.90;;;;;;5114836;28;20089;-84
2023/05/27 03:49:28;;;;;;;11.05;2.92;;;8.20;99.90;;;;;;5114506;28;20035;-84
2023/05/27 03:51:53;;;;;;;18.38;4.35;;;8.30;99.90;;;;;;5114798;28;20039;-84
2023/05/27 03:54:19;;;;;;;11.95;3.58;;;8.30;99.90;;;;;;5116080;28;20040;-84
2023/05/27 03:56:45;;;;;;;13.13;3.13;;;8.40;99.90;;;;;;5114516;28;20489;-84
2023/05/27 03:59:11;;;;;;;14.07;3.55;;;8.40;99.90;;;;;;5115803;28;20034;-84
2023/05/27 04:01:37;;;;;;;14.90;3.63;;;8.50;99.90;;;;;;5114307;28;20404;-84
2023/05/27 04:04:03;;;;;;;19.10;3.70;;;8.50;99.90;;;;;;5114566;28;20043;-84
2023/05/27 04:06:31;;;;;;;12.75;3.85;;;8.60;99.90;;;;;;5114327;28;20373;-84
2023/05/27 04:08:57;;;;;;;24.02;4.60;;;8.60;99.90;;;;;;5114393;28;20392;-84
2023/05/27 04:11:26;;;;;;;14.45;3.28;;;8.60;99.90;;;;;;5113922;28;20043;-84
2023/05/27 04:13:52;;;;;;;12.27;3.22;;;8.70;99.90;;;;;;5114269;28;20043;-84
2023/05/27 04:16:18;;;;;;;15.57;3.65;;;8.70;99.90;;;;;;5114378;28;20400;-84
2023/05/27 04:18:48;;;;;;;16.35;3.47;;;8.80;99.90;;;;;;5114106;28;20075;-85
2023/05/27 04:21:23;;;;;;;16.38;4.15;;;8.80;99.90;;;;;;5114036;28;20047;-84
2023/05/27 04:23:49;;;;;;;12.38;3.30;;;8.80;99.90;;;;;;5114019;28;20039;-84
2023/05/27 04:26:14;;;;;;;10.07;3.10;;;8.90;99.90;;;;;;5115321;28;20031;-84
2023/05/27 04:28:40;;;;;;;10.02;3.47;;;8.90;99.90;;;;;;5115219;28;20058;-84
2023/05/27 04:31:12;;;;;;;13.63;3.38;;;8.90;99.90;;;;;;5113728;28;20114;-84
2023/05/27 04:33:41;;;;;;;13.57;2.75;;;8.90;99.90;;;;;;5113893;28;20545;-84
2023/05/27 04:36:07;;;;;;;17.48;3.33;;;8.90;99.90;;;;;;5113884;28;20050;-84
2023/05/27 04:38:33;;;;;;;15.68;3.85;;;9.00;99.90;;;;;;5114090;28;20046;-84
2023/05/27 04:41:00;;;;;;;12.70;3.45;;;9.00;99.90;;;;;;5113528;28;20431;-84
2023/05/27 04:43:26;;;;;;;13.48;3.92;;;9.00;99.90;;;;;;5115086;28;20039;-84
2023/05/27 04:45:53;;;;;;;13.85;4.03;;;9.00;99.90;;;;;;5114011;28;20043;-84
2023/05/27 04:48:19;;;;;;;17.92;3.70;;;9.10;99.90;;;;;;5114772;28;20117;-84
2023/05/27 04:50:45;;;;;;;16.08;3.65;;;9.10;99.90;;;;;;5112486;28;20075;-84
2023/05/27 04:53:11;;;;;;;14.27;3.95;;;9.10;99.90;;;;;;5113686;28;20070;-84
2023/05/27 04:55:38;;;;;;;11.82;4.65;;;9.20;99.90;;;;;;5096764;28;20119;-84
2023/05/27 04:58:05;;;;;;;11.88;2.80;;;9.20;99.90;;;;;;5113449;28;20409;-84
2023/05/27 05:00:49;;;;;;;11.80;3.67;;;9.30;99.90;;;;;;5113365;28;20055;-84
2023/05/27 05:03:26;;;;;;;18.38;3.97;;;9.30;99.90;;;;;;5114785;28;20039;-84
2023/05/27 05:05:52;;;;;;;16.75;4.85;;;9.40;99.90;;;;;;5113597;28;20110;-84
2023/05/27 05:08:21;;;;;;;17.83;4.50;;;9.40;99.90;;;;;;5113159;28;20050;-84
2023/05/27 05:10:48;;;;;;;13.45;3.63;;;9.50;99.90;;;;;;5112835;28;20050;-84
2023/05/27 05:13:14;;;;;;;16.33;3.40;;;9.50;99.90;;;;;;5114367;28;20392;-84
2023/05/27 05:15:43;;;;;;;15.60;3.70;;;9.60;99.90;;;;;;5113198;28;20051;-84
2023/05/27 05:18:10;;;;;;;11.05;2.60;;;9.60;99.90;;;;;;5113304;28;20043;-84
2023/05/27 05:20:35;;;;;;;20.55;3.47;;;9.70;99.90;;;;;;5113167;28;20491;-84
2023/05/27 05:23:01;;;;;;;13.00;3.78;;;9.70;99.90;;;;;;5112885;28;20049;-84
2023/05/27 05:25:27;;;;;;;12.57;4.00;;;9.80;99.90;;;;;;5096072;27;20039;-84
2023/05/27 05:27:53;;;;;;;11.68;3.13;;;9.80;99.90;;;;;;5098474;28;20040;-84
2023/05/27 05:30:19;;;;;;;16.95;3.95;;;9.90;99.90;;;;;;5078570;28;20039;-84
2023/05/27 05:32:45;;;;;;;17.88;4.15;;;10.00;99.90;;;;;;5095922;28;20046;-84
2023/05/27 05:35:10;;;;;;;14.68;3.92;;;10.10;99.90;;;;;;5095846;28;20065;-84
2023/05/27 05:37:36;;;;;;;13.82;4.35;;;10.10;99.90;;;;;;5114092;28;20051;-84
2023/05/27 05:40:02;;;;;;;16.23;3.83;;;10.20;99.90;;;;;;5095181;28;20053;-84
2023/05/27 05:42:27;;;;;;;13.30;3.30;;;10.30;99.90;;;;;;5113969;28;20077;-84
2023/05/27 05:44:53;;;;;;;17.77;4.32;;;10.30;99.90;;;;;;5095774;28;20044;-84
2023/05/27 05:47:19;;;;;;;14.02;3.70;;;10.40;99.90;;;;;;5095538;28;20050;-84
2023/05/27 05:49:44;;;;;;;20.17;3.75;;;10.50;99.90;;;;;;5095049;28;20047;-84
2023/05/27 05:52:10;;;;;;;14.60;3.08;;;10.60;99.90;;;;;;5095574;28;20066;-84
2023/05/27 05:54:36;;;;;;;13.65;3.03;;;10.70;99.90;;;;;;5113572;28;20085;-84
2023/05/27 05:57:02;;;;;;;15.88;3.65;;;10.70;99.90;;;;;;5095440;28;20484;-84
2023/05/27 05:59:28;;;;;;;14.07;3.55;;;10.80;99.90;;;;;;5095039;28;20086;-84
2023/05/27 06:01:54;;;;;;;18.38;3.75;;;10.90;99.90;;;;;;5095120;28;20047;-84
2023/05/27 06:04:20;;;;;;;16.88;3.47;;;11.00;99.90;;;;;;5095297;28;20386;-84
2023/05/27 06:06:45;;;;;;;19.73;3.38;;;11.10;99.90;;;;;;5095025;28;20043;-85
2023/05/27 06:09:11;;;;;;;14.85;4.13;;;11.10;99.90;;;;;;5094928;28;20040;-84
2023/05/27 06:11:37;;;;;;;17.05;3.83;;;11.20;99.90;;;;;;5112966;28;20039;-84
2023/05/27 06:14:03;;;;;;;15.60;3.33;;;11.30;99.90;;;;;;5095110;28;20404;-84
2023/05/27 06:16:28;;;;;;;16.58;3.58;;;11.40;99.90;;;;;;5113309;28;20040;-85
2023/05/27 06:18:54;;;;;;;15.85;3.60;;;11.50;99.90;;;;;;5095117;28;20524;-84
2023/05/27 06:21:20;;;;;;;14.90;3.00;;;11.60;99.90;;;;;;5094688;28;20043;-84
2023/05/27 06:23:46;;;;;;;15.55;5.07;;;11.70;99.90;;;;;;5094638;28;20039;-85
2023/05/27 06:26:11;;;;;;;15.02;3.60;;;11.80;99.90;;;;;;5095177;28;20043;-85
2023/05/27 06:28:37;;;;;;;16.40;3.92;;;11.80;99.90;;;;;;5094632;28;20114;-84
2023/05/27 06:31:02;;;;;;;13.20;3.83;;;11.90;99.90;;;;;;5112767;28;20035;-84
2023/05/27 06:33:28;;;;;;;13.30;3.13;;;12.00;99.90;;;;;;5094768;28;20511;-85
2023/05/27 06:35:54;;;;;;;13.60;2.83;;;12.00;99.90;;;;;;5094701;28;20092;-84
2023/05/27 06:38:20;;;;;;;19.25;6.38;;;12.00;99.90;;;;;;5094323;28;20088;-84
2023/05/27 06:40:46;;;;;;;11.82;3.38;;;12.10;99.90;;;;;;5094393;28;20124;-85
2023/05/27 06:43:11;;;;;;;17.83;3.78;;;12.10;99.90;;;;;;5094515;28;20043;-84
2023/05/27 06:45:37;;;;;;;17.05;3.95;;;12.10;99.90;;;;;;5094478;28;20050;-84
2023/05/27 06:48:02;;;;;;;16.58;3.45;;;12.20;99.90;;;;;;5094301;28;20043;-84
2023/05/27 06:50:28;;;;;;;16.25;3.60;;;12.30;99.90;;;;;;5094059;28;20035;-84
2023/05/27 06:52:54;;;;;;;12.27;3.60;;;12.30;99.90;;;;;;5094220;28;20048;-84
2023/05/27 06:55:20;;;;;;;16.08;3.88;;;12.40;99.90;;;;;;5094331;28;20044;-85
2023/05/27 06:57:45;;;;;;;22.35;6.43;;;12.50;99.90;;;;;;5094351;28;20044;-85
2023/05/27 07:00:11;;;;;;;12.00;3.67;;;12.70;99.90;;;;;;5093872;28;20094;-85
2023/05/27 07:02:37;;;;;;;16.40;3.97;;;12.80;99.90;;;;;;5094024;28;20047;-85
2023/05/27 07:05:03;;;;;;;15.45;3.53;;;12.80;99.90;;;;;;5094273;28;20400;-85
2023/05/27 07:07:28;;;;;;;19.70;6.38;;;12.90;99.90;;;;;;5111906;28;20043;-85
2023/05/27 07:09:54;;;;;;;17.90;3.97;;;13.00;99.90;;;;;;5093682;28;20434;-85
2023/05/27 07:12:20;;;;;;;17.42;6.53;;;13.00;99.90;;;;;;5093552;28;20117;-85
2023/05/27 07:14:45;;;;;;;22.55;7.20;;;13.10;99.90;;;;;;5094091;28;20071;-84
2023/05/27 07:17:11;;;;;;;14.50;3.28;;;13.20;99.90;;;;;;5112246;28;20508;-84
2023/05/27 07:19:37;;;;;;;13.30;3.30;;;13.10;99.90;;;;;;5076811;28;20119;-84
2023/05/27 07:22:03;;;;;;;18.27;4.38;;;13.10;99.90;;;;;;5093901;28;20172;-84
2023/05/27 07:24:29;;;;;;;16.80;3.88;;;13.00;99.90;;;;;;5093681;28;20066;-84
2023/05/27 07:26:54;;;;;;;16.60;4.32;;;12.90;99.90;;;;;;5093956;28;20065;-85
2023/05/27 07:29:20;;;;;;;18.98;6.60;;;12.90;99.90;;;;;;5111961;28;20039;-84
2023/05/27 07:31:46;;;;;;;14.60;3.83;;;12.90;99.90;;;;;;5093534;28;20902;-84
2023/05/27 07:34:12;;;;;;;16.80;3.58;;;13.00;99.90;;;;;;5093755;28;20035;-85
2023/05/27 07:36:38;;;;;;;19.08;6.70;;;13.00;99.90;;;;;;5093899;28;20115;-85
2023/05/27 07:39:03;;;;;;;17.95;4.15;;;13.20;99.90;;;;;;5093812;28;20039;-85
2023/05/27 07:41:29;;;;;;;14.88;3.83;;;13.30;99.90;;;;;;5093829;28;20065;-85
2023/05/27 07:43:56;;;;;;;13.63;3.67;;;13.40;99.90;;;;;;5093725;28;20488;-84
2023/05/27 07:46:22;;;;;;;19.35;7.00;;;13.40;99.90;;;;;;5093938;28;20051;-85
2023/05/27 07:48:47;;;;;;;15.77;4.38;;;13.60;99.90;;;;;;5093528;28;20408;-85
2023/05/27 07:51:13;;;;;;;15.40;4.30;;;13.70;99.90;;;;;;5076526;28;20089;-85
2023/05/27 07:53:39;;;;;;;22.25;6.20;;;13.80;99.90;;;;;;5093750;28;20035;-85
2023/05/27 07:56:04;;;;;;;17.65;3.83;;;13.90;99.90;;;;;;5093756;28;20052;-85
2023/05/27 07:58:30;;;;;;;19.27;6.85;;;14.00;99.90;;;;;;5111851;28;20416;-85
2023/05/27 08:00:56;;;;;;;20.27;7.03;;;14.10;99.90;;;;;;5093243;28;20503;-85
2023/05/27 08:03:22;;;;;;;14.60;4.63;;;14.30;99.90;;;;;;5092626;28;20039;-85
2023/05/27 08:05:48;;;;;;;14.90;3.95;;;14.30;99.90;;;;;;5093521;28;20055;-85
2023/05/27 08:08:13;;;;;;;13.00;3.95;;;14.30;99.90;;;;;;5111633;28;20040;-85
2023/05/27 08:10:39;;;;;;;15.77;6.18;;;14.30;99.90;;;;;;5093183;28;20488;-85
2023/05/27 08:13:05;;;;;;;20.92;6.97;;;14.40;99.90;;;;;;5093495;28;20047;-85
2023/05/27 08:15:31;;;;;;;18.63;6.32;;;14.60;99.90;;;;;;5093421;28;20504;-85
2023/05/27 08:17:57;;;;;;;13.63;3.50;;;14.60;99.90;;;;;;5111479;28;20497;-86
2023/05/27 08:20:23;;;;;;;20.73;7.18;;;14.70;99.90;;;;;;5093163;28;20127;-85
2023/05/27 08:22:48;;;;;;;18.23;6.55;;;14.80;99.90;;;;;;5093451;28;20072;-85
2023/05/27 08:25:15;;;;;;;18.02;6.18;;;15.00;99.90;;;;;;5094835;28;20447;-85
2023/05/27 08:27:52;;;;;;;16.85;3.72;;;15.10;99.90;;;;;;5097190;28;20181;-85
2023/05/27 08:30:19;;;;;;;16.20;3.92;;;15.10;99.90;;;;;;5096344;28;20497;-85
2023/05/27 08:32:45;;;;;;;16.60;5.13;;;15.10;99.90;;;;;;5097045;28;20536;-85
2023/05/27 08:35:11;;;;;;;24.20;7.55;;;15.10;99.90;;;;;;5096879;28;20489;-85
2023/05/27 08:37:37;;;;;;;18.98;6.50;;;15.30;99.90;;;;;;5096887;28;20055;-85
2023/05/27 08:40:06;;;;;;;18.85;5.85;;;15.40;99.90;;;;;;5096367;28;20487;-85
2023/05/27 08:42:33;;;;;;;19.08;6.57;;;15.40;99.90;;;;;;5115106;28;20032;-85
2023/05/27 08:44:59;;;;;;;19.83;6.40;;;15.50;99.90;;;;;;5096819;28;20075;-85
2023/05/27 08:47:27;;;;;;;19.25;6.30;;;15.60;99.60;;;;;;5096810;28;20047;-85
2023/05/27 08:49:53;;;;;;;20.40;6.05;;;15.80;98.10;;;;;;5096309;28;20114;-85
2023/05/27 08:52:21;;;;;;;18.58;4.68;;;15.80;95.90;;;;;;5096654;28;20165;-85
2023/05/27 08:54:48;;;;;;;22.48;6.38;;;15.80;97.00;;;;;;5096744;28;20040;-85
2023/05/27 08:57:17;;;;;;;15.50;4.88;;;15.90;97.60;;;;;;5096462;28;20094;-85
2023/05/27 08:59:43;;;;;;;18.55;5.18;;;16.00;97.20;;;;;;5096400;28;20405;-85
2023/05/27 09:02:12;;;;;;;20.67;7.03;;;16.00;96.20;;;;;;5096414;28;20485;-85
2023/05/27 09:04:40;;;;;;;19.85;7.07;;;16.00;94.30;;;;;;5079447;28;20071;-85
2023/05/27 09:07:06;;;;;;;18.70;6.45;;;16.10;94.20;;;;;;5114339;28;20432;-85
2023/05/27 09:09:32;;;;;;;16.13;4.90;;;16.20;94.40;;;;;;5096006;28;20046;-85
2023/05/27 09:12:04;;;;;;;18.85;6.43;;;16.30;94.60;;;;;;5096472;28;20040;-85
2023/05/27 09:14:30;;;;;;;18.88;6.53;;;16.40;94.00;;;;;;5096155;28;20036;-85
2023/05/27 09:16:56;;;;;;;20.98;7.45;;;16.50;93.10;;;;;;5096180;28;20062;-85
2023/05/27 09:19:22;;;;;;;20.10;7.32;;;16.60;92.80;;;;;;5095911;28;20492;-85
2023/05/27 09:21:54;;;;;;;20.67;7.15;;;16.60;93.30;;;;;;5095897;28;20116;-85
2023/05/27 09:24:22;;;;;;;16.10;5.43;;;16.70;93.70;;;;;;5095630;28;20051;-85
2023/05/27 09:26:50;;;;;;;18.67;6.25;;;16.80;93.00;;;;;;5095944;28;20046;-85
2023/05/27 09:29:18;;;;;;;18.92;8.43;;;16.80;93.30;;;;;;5095903;28;20035;-85
2023/05/27 09:31:44;;;;;;;17.23;6.80;;;16.90;92.80;;;;;;5095426;28;20035;-85
2023/05/27 09:34:19;;;;;;;18.42;6.45;;;17.00;92.40;;;;;;5114003;28;20408;-85
2023/05/27 09:36:49;;;;;;;18.38;6.47;;;17.20;91.00;;;;;;5113583;28;20032;-86
2023/05/27 09:39:15;;;;;;;18.25;6.72;;;17.20;90.70;;;;;;5113906;28;20050;-85
2023/05/27 09:41:42;;;;;;;18.08;6.72;;;17.40;89.70;;;;;;5095401;28;20467;-85
2023/05/27 09:44:08;;;;;;;18.13;6.57;;;17.40;88.40;;;;;;5113912;28;20036;-85
2023/05/27 09:46:35;;;;;;;20.40;7.97;;;17.50;87.00;;;;;;5113774;28;20043;-85
2023/05/27 09:49:05;;;;;;;24.13;8.05;;;17.50;85.80;;;;;;5113571;28;20047;-85
2023/05/27 09:51:32;;;;;;;17.23;6.80;;;17.60;84.90;;;;;;5095310;28;20050;-85
2023/05/27 09:53:58;;;;;;;18.73;6.55;;;17.70;85.80;;;;;;5095751;28;20149;-85
2023/05/27 09:56:26;;;;;;;18.05;6.70;;;17.80;85.10;;;;;;5095440;28;20039;-85
2023/05/27 09:58:56;;;;;;;18.38;6.43;;;17.90;83.40;;;;;;5113669;28;20043;-85
2023/05/27 10:01:28;;;;;;;18.10;6.75;;;17.90;82.60;;;;;;5094977;28;20561;-85
2023/05/27 10:03:54;;;;;;;18.58;6.13;;;17.90;82.20;;;;;;5078472;28;20050;-85
2023/05/27 10:06:21;;;;;;;16.45;5.68;;;18.00;83.60;;;;;;5095321;28;20058;-85
2023/05/27 10:08:47;;;;;;;21.85;6.70;;;18.20;83.20;;;;;;5094821;28;20528;-85
2023/05/27 10:11:13;;;;;;;16.10;6.28;;;18.30;81.30;;;;;;5094023;28;20199;-85
2023/05/27 10:13:39;;;;;;;17.00;7.07;;;18.40;80.70;;;;;;5111868;28;20429;-85
2023/05/27 10:16:05;;;;;;;17.25;6.45;;;18.40;79.80;;;;;;5097128;27;20064;-85
2023/05/27 10:18:33;;;;;;;18.45;6.40;;;18.50;79.60;;;;;;5105723;27;20061;-85
2023/05/27 10:21:03;;;;;;;15.02;5.80;;;18.60;80.30;;;;;;5103778;27;20039;-85
2023/05/27 10:23:31;;;;;;;19.02;7.03;;;18.70;79.40;;;;;;5103981;28;20506;-85
2023/05/27 10:26:01;;;;;;;19.83;6.82;;;18.80;78.30;;;;;;5101132;27;20047;-85
2023/05/27 10:28:31;;;;;;;17.23;6.40;;;18.90;77.70;;;;;;5103886;27;20042;-85
2023/05/27 10:31:11;;;;;;;16.75;6.03;;;19.00;78.60;;;;;;5118843;27;20043;-86
2023/05/27 10:33:47;;;;;;;16.10;6.13;;;19.10;76.60;;;;;;5100716;27;20043;-86
2023/05/27 10:36:21;;;;;;;16.55;5.70;;;19.10;76.10;;;;;;5103323;28;20584;-85
2023/05/27 10:39:04;;;;;;;18.02;6.28;;;19.20;75.50;;;;;;5103794;28;20096;-85
2023/05/27 10:41:59;;;;;;;17.20;6.45;;;19.30;74.50;;;;;;5112469;28;20454;-86
2023/05/27 10:44:34;;;;;;;14.95;6.63;;;19.30;74.90;;;;;;4993664;28;20060;-85
2023/05/27 10:47:11;;;;;;;14.85;5.47;;;19.30;73.20;;;;;;4993263;28;20603;-86
2023/05/27 10:49:39;;;;;;;15.82;5.60;;;19.30;72.80;;;;;;4993208;28;20053;-86
2023/05/27 10:52:12;;;;;;;18.38;5.97;;;19.40;73.70;;;;;;5010141;28;20041;-86
2023/05/27 10:54:50;;;;;;;16.10;5.70;;;19.50;72.30;;;;;;4993506;28;20053;-86
2023/05/27 10:57:18;;;;;;;18.23;6.45;;;19.60;72.80;;;;;;4993591;28;20041;-86
2023/05/27 10:59:50;;;;;;;18.35;6.55;;;19.80;73.40;;;;;;4993104;28;20056;-86
2023/05/27 11:02:16;;;;;;;20.05;6.22;;;20.00;73.60;;;;;;5009770;28;20077;-86
2023/05/27 11:04:42;;;;;;;18.42;6.63;;;20.00;73.10;;;;;;4993509;28;20042;-86
2023/05/27 11:07:08;;;;;;;15.50;5.47;;;20.20;71.90;;;;;;4993555;28;20050;-86
2023/05/27 11:09:44;;;;;;;14.65;6.18;;;20.20;72.40;;;;;;4993110;28;20478;-86
2023/05/27 11:12:16;;;;;;;15.85;5.93;;;20.20;71.00;;;;;;4993093;28;20096;-86
2023/05/27 11:14:46;;;;;;;13.32;4.88;;;20.30;70.80;;;;;;4993604;28;20112;-86
2023/05/27 11:17:12;;;;;;;16.45;5.97;;;20.40;69.80;;;;;;4993280;28;20049;-86
2023/05/27 11:19:42;;;;;;;17.88;7.28;;;20.50;69.60;;;;;;4995313;28;20046;-86
2023/05/27 11:22:08;;;;;;;20.55;6.35;;;20.60;69.30;;;;;;5094023;28;20092;-86
2023/05/27 11:24:36;;;;;;;15.93;5.40;;;20.80;69.90;;;;;;5096271;28;20050;-86
2023/05/27 11:27:12;;;;;;;16.58;5.82;;;20.90;68.90;;;;;;5093904;28;20043;-86
2023/05/27 11:29:38;;;;;;;16.05;5.32;;;21.00;68.20;;;;;;5093346;28;20422;-86
2023/05/27 11:32:05;;;;;;;15.60;6.07;;;21.10;66.90;;;;;;5094102;28;20032;-86
2023/05/27 11:34:33;;;;;;;15.18;5.88;;;21.20;66.20;;;;;;5112103;28;20039;-86
2023/05/27 11:37:05;;;;;;;13.80;5.28;;;21.20;67.90;;;;;;5094091;28;20481;-86
2023/05/27 11:39:32;;;;;;;17.53;5.80;;;21.40;67.80;;;;;;5093329;28;20044;-86
2023/05/27 11:41:58;;;;;;;18.08;5.80;;;21.50;68.00;;;;;;5094015;28;20647;-86
2023/05/27 11:44:24;;;;;;;15.25;5.53;;;21.60;66.60;;;;;;5093762;28;20114;-86
2023/05/27 11:46:52;;;;;;;15.02;5.30;;;21.70;65.80;;;;;;5093899;28;20382;-86
2023/05/27 11:49:19;;;;;;;15.65;5.75;;;21.80;66.70;;;;;;5111811;28;20036;-86
2023/05/27 11:51:50;;;;;;;16.25;5.53;;;22.00;65.20;;;;;;5093434;28;20485;-86
2023/05/27 11:54:21;;;;;;;16.25;5.53;;;22.10;66.50;;;;;;5093775;28;20351;-85
2023/05/27 11:56:48;;;;;;;15.82;5.65;;;22.20;65.60;;;;;;5111760;28;20119;-86
2023/05/27 11:59:14;;;;;;;14.20;4.80;;;22.30;64.90;;;;;;5095341;28;20074;-86
2023/05/27 12:01:40;;;;;;;13.07;5.18;;;22.40;63.70;;;;;;5115528;28;20075;-86
2023/05/27 12:04:06;;;;;;;14.65;5.40;;;22.40;63.40;;;;;;5097678;28;20085;-86
2023/05/27 12:06:32;;;;;;;15.73;5.45;;;22.50;63.80;;;;;;5097673;28;20035;-86
2023/05/27 12:08:58;;;;;;;15.23;5.18;;;22.60;62.90;;;;;;5097388;28;20466;-86
2023/05/27 12:11:23;;;;;;;15.90;5.45;;;22.70;63.10;;;;;;5096854;28;20557;-86
2023/05/27 12:13:51;;;;;;;17.27;5.10;;;22.80;62.40;;;;;;5097259;28;20081;-86
2023/05/27 12:16:16;;;;;;;14.07;4.95;;;22.90;62.20;;;;;;5097310;28;20520;-86
2023/05/27 12:18:42;;;;;;;17.73;6.18;;;23.00;62.50;;;;;;5097181;28;20043;-87
2023/05/27 12:21:08;;;;;;;17.63;5.40;;;23.00;61.00;;;;;;5115415;28;20116;-86
2023/05/27 12:23:33;;;;;;;14.77;5.25;;;23.10;61.20;;;;;;5097056;28;20043;-87
2023/05/27 12:25:59;;;;;;;15.90;5.28;;;23.10;61.40;;;;;;5097033;28;20039;-87
2023/05/27 12:28:26;;;;;;;17.42;5.82;;;23.20;61.00;;;;;;5096896;28;20075;-86
2023/05/27 12:30:51;;;;;;;13.90;4.82;;;23.20;61.00;;;;;;5096429;27;20084;-86
2023/05/27 12:33:17;;;;;;;14.48;4.82;;;23.30;61.80;;;;;;5106034;27;20039;-86
2023/05/27 12:35:43;;;;;;;14.70;5.15;;;23.40;61.90;;;;;;5089820;27;20385;-86
2023/05/27 12:38:08;;;;;;;15.45;5.65;;;23.60;61.40;;;;;;5107381;27;20071;-86
2023/05/27 12:40:34;;;;;;;15.18;5.28;;;23.70;60.10;;;;;;5104864;28;20047;-87
2023/05/27 12:43:00;;;;;;;14.05;4.82;;;23.80;60.00;;;;;;5106965;27;20077;-86